Strona główna
METAR-TAF:

METAR-TAF

Lotnisko :

Tomaszów Mazowiecki, Polska

Szerokość geograficzna: 51-35-04N, Długość geograficzna: 020-05-52E, wysokość: 174 m

METAR: brakujący

czas: 03:13 (01:13 UTC)

Prognoza

Raport powstał 5 godziny i 13 minut temu, godzina 20:00 UTC
Prognoza ważna od 12 godzina 21 UTC do 13 godzina 06 UTC
Wiatr 12 kt od północny zachód
Widzialność 10 km lub więcej
Przerywane chmury na wysokości 1200 ft
Przejściowo
od 12 godzina 21 UTC do 13 godzina 06 UTC
Widzialność: 6000 m
Rozproszone chmury na wysokości 500 ft
Przerywane chmury na wysokości 1000 ft
słaby deszcz
Prawdopodobieństwo 30% :
Przejściowo
od 13 godzina 02 UTC do 13 godzina 06 UTC
Widzialność: 3000 m
Przerywane chmury na wysokości 700 ft
Zachmurzenie całkowite na wysokości 1000 ft
słaby deszcz, śnieg

TAF: EPTM 122000Z 1221/1306 31012KT 9999 BKN012 TEMPO 1221/1306 6000 -RA SCT005 BKN010 PROB30 TEMPO 1302/1306 3000 -RASN BKN007 OVC010

Obserwacja i prognoza pogody dla ponad 4000 lotnisk (raport METAR i TAF).

Dostępne stacje oznaczono żółtymi i czerwonymi punktami na mapie.

Najedź kursorem aby zobaczyć nazwę stacji.

Kliknij aby zobaczyć obserwacje i prognozy pogody.

Aby zmienić mapę: kliknij na zielony przycisk z czarnym krzyżykiem, aby powiększyć; na zielony przycisk z myślnikiem, aby pomniejszyć; na zielone strzałki, aby przejść do map sąsiednich.


METAR-TAF: